Time;durP1;ratioP1;P1;durP2;ratioP2;P2;SDS_P1;SDS_P2;PMS_P1;PMS_P2;Temp;Humidity;BMP_temperature;BMP_pressure;BME280_temperature;BME280_humidity;BME280_pressure;Samples;Min_cycle;Max_cycle;Signal;HPM_P1;HPM_P2
2022/07/02 00:00:15;;;;;;;;;;;27.50;58.50;;;;;;5051913;28;19919;-64
2022/07/02 00:02:42;;;;;;;;;;;27.50;58.70;;;;;;5051849;28;20011;-63
2022/07/02 00:05:08;;;;;;;;;;;27.50;58.50;;;;;;5051615;28;19958;-61
2022/07/02 00:07:34;;;;;;;;;;;27.50;58.40;;;;;;5051693;28;19967;-61
2022/07/02 00:09:59;;;;;;;;;;;27.50;58.30;;;;;;5051798;28;19962;-61
2022/07/02 00:12:28;;;;;;;;;;;27.50;58.50;;;;;;5051735;28;20015;-60
2022/07/02 00:14:55;;;;;;;;;;;27.40;58.50;;;;;;5051843;28;19963;-62
2022/07/02 00:17:21;;;;;;;;;;;27.50;58.60;;;;;;5051573;28;19909;-63
2022/07/02 00:19:47;;;;;;;;;;;27.30;58.90;;;;;;5051851;28;19920;-63
2022/07/02 00:22:14;;;;;;;;;;;27.30;59.10;;;;;;5051408;28;19912;-60
2022/07/02 00:24:42;;;;;;;;;;;27.20;59.30;;;;;;5051459;28;19913;-61
2022/07/02 00:27:15;;;;;;;;;;;27.20;59.30;;;;;;5051517;28;19909;-64
2022/07/02 00:29:54;;;;;;;;;;;27.20;59.60;;;;;;5051511;28;19927;-60
2022/07/02 00:32:19;;;;;;;;;;;27.00;60.80;;;;;;5051260;28;19923;-62
2022/07/02 00:34:46;;;;;;;;;;;26.90;60.10;;;;;;5051649;28;19913;-62
2022/07/02 00:37:12;;;;;;;;;;;26.90;60.40;;;;;;5051415;28;19932;-61
2022/07/02 00:39:38;;;;;;;;;;;26.90;60.30;;;;;;5051411;28;19916;-58
2022/07/02 00:42:04;;;;;;;;;;;26.80;60.10;;;;;;5051515;28;20311;-63
2022/07/02 00:44:30;;;;;;;;;;;26.80;59.90;;;;;;5053118;28;19908;-62
2022/07/02 00:46:58;;;;;;;;;;;26.80;60.10;;;;;;5055520;28;20303;-61
2022/07/02 00:49:24;;;;;;;;;;;26.80;59.60;;;;;;5055329;28;20027;-63
2022/07/02 00:51:51;;;;;;;;;;;26.90;59.20;;;;;;5054771;28;19924;-61
2022/07/02 00:54:16;;;;;;;;;;;27.00;58.80;;;;;;5054852;28;20411;-64
2022/07/02 00:56:42;;;;;;;;;;;27.10;58.40;;;;;;5054767;28;19963;-62
2022/07/02 00:59:07;;;;;;;;;;;27.00;58.50;;;;;;5054885;28;19931;-63
2022/07/02 01:01:33;;;;;;;;;;;27.00;58.60;;;;;;5054709;28;20360;-63
2022/07/02 01:04:00;;;;;;;;;;;27.00;58.50;;;;;;5054644;28;19916;-62
2022/07/02 01:06:26;;;;;;;;;;;27.00;58.60;;;;;;5054803;28;19908;-62
2022/07/02 01:11:36;;;;;;;;;;;26.90;58.30;;;;;;5054721;28;19931;-63
2022/07/02 01:14:02;;;;;;;;;;;26.80;58.50;;;;;;5054497;28;19909;-62
2022/07/02 01:16:28;;;;;;;;;;;26.80;58.50;;;;;;5054555;28;19936;-64
2022/07/02 01:18:53;;;;;;;;;;;26.80;58.90;;;;;;5054626;28;20383;-63
2022/07/02 01:21:19;;;;;;;;;;;26.70;59.00;;;;;;5054492;28;19908;-62
2022/07/02 01:23:44;;;;;;;;;;;26.80;59.10;;;;;;5054393;28;19909;-65
2022/07/02 01:26:10;;;;;;;;;;;26.60;58.50;;;;;;5054397;28;20033;-63
2022/07/02 01:28:35;;;;;;;;;;;26.60;59.30;;;;;;5054574;28;20358;-63
2022/07/02 01:31:01;;;;;;;;;;;26.70;58.60;;;;;;5053957;28;19925;-64
2022/07/02 01:33:26;;;;;;;;;;;26.70;58.60;;;;;;5054368;28;19909;-63
2022/07/02 01:35:52;;;;;;;;;;;26.70;58.70;;;;;;5054174;28;19915;-62
2022/07/02 01:38:17;;;;;;;;;;;26.80;58.60;;;;;;5054194;28;19916;-63
2022/07/02 01:40:43;;;;;;;;;;;26.80;58.40;;;;;;5054113;28;19994;-62
2022/07/02 01:43:09;;;;;;;;;;;26.80;58.30;;;;;;5053979;28;19955;-62
2022/07/02 01:45:34;;;;;;;;;;;26.80;58.20;;;;;;5053964;28;19913;-63
2022/07/02 01:48:00;;;;;;;;;;;26.80;58.20;;;;;;5054237;28;19916;-63
2022/07/02 01:50:25;;;;;;;;;;;26.80;57.90;;;;;;5054075;28;19909;-63
2022/07/02 01:52:51;;;;;;;;;;;26.80;57.80;;;;;;5054121;28;19956;-63
2022/07/02 01:55:16;;;;;;;;;;;26.80;57.90;;;;;;5053687;28;19917;-61
2022/07/02 01:57:42;;;;;;;;;;;26.80;57.90;;;;;;5053892;28;19963;-63
2022/07/02 02:00:09;;;;;;;;;;;26.80;57.70;;;;;;5053777;28;19963;-60
2022/07/02 02:02:34;;;;;;;;;;;26.80;57.60;;;;;;5054001;28;19913;-61
2022/07/02 02:05:00;;;;;;;;;;;26.80;57.40;;;;;;5053648;28;19916;-64
2022/07/02 02:07:27;;;;;;;;;;;26.80;57.50;;;;;;5053679;28;20368;-62
2022/07/02 02:09:53;;;;;;;;;;;26.70;57.60;;;;;;5053582;28;20372;-61
2022/07/02 02:12:19;;;;;;;;;;;26.50;57.80;;;;;;5053566;28;19925;-59
2022/07/02 02:14:45;;;;;;;;;;;26.60;58.00;;;;;;5053464;28;19913;-61
2022/07/02 02:17:10;;;;;;;;;;;26.60;57.60;;;;;;5054001;28;19916;-60
2022/07/02 02:19:36;;;;;;;;;;;26.70;57.40;;;;;;5053741;28;19940;-61
2022/07/02 02:22:01;;;;;;;;;;;26.60;57.00;;;;;;5053293;28;20353;-62
2022/07/02 02:24:27;;;;;;;;;;;26.60;57.20;;;;;;5053349;28;20428;-59
2022/07/02 02:26:52;;;;;;;;;;;26.50;57.10;;;;;;5053267;28;19916;-63
2022/07/02 02:29:18;;;;;;;;;;;26.50;57.40;;;;;;5052877;28;20357;-62
2022/07/02 02:31:43;;;;;;;;;;;26.50;57.20;;;;;;5053004;28;20483;-61
2022/07/02 02:34:09;;;;;;;;;;;26.50;57.20;;;;;;5053033;28;20003;-62
2022/07/02 02:36:34;;;;;;;;;;;26.50;57.50;;;;;;5053124;28;19913;-59
2022/07/02 02:39:00;;;;;;;;;;;26.40;57.30;;;;;;5053094;28;20348;-62
2022/07/02 02:41:26;;;;;;;;;;;26.40;57.20;;;;;;5052965;28;20349;-62
2022/07/02 02:43:51;;;;;;;;;;;26.40;57.10;;;;;;5052929;28;20298;-64
2022/07/02 02:46:17;;;;;;;;;;;26.40;57.20;;;;;;5052910;28;20361;-64
2022/07/02 02:48:42;;;;;;;;;;;26.50;56.70;;;;;;5054030;28;19978;-64
2022/07/02 02:51:10;;;;;;;;;;;26.50;56.20;;;;;;5053568;28;20455;-62
2022/07/02 02:53:36;;;;;;;;;;;26.40;56.40;;;;;;5053433;28;19948;-64
2022/07/02 02:56:02;;;;;;;;;;;26.40;56.60;;;;;;5053799;28;20364;-63
2022/07/02 02:58:28;;;;;;;;;;;26.40;56.50;;;;;;5053336;28;19959;-64
2022/07/02 03:00:54;;;;;;;;;;;26.40;56.00;;;;;;5053914;28;19909;-63
2022/07/02 03:03:19;;;;;;;;;;;26.40;55.30;;;;;;5054441;28;19916;-65
2022/07/02 03:05:45;;;;;;;;;;;26.40;55.40;;;;;;5053715;28;19966;-63
2022/07/02 03:08:10;;;;;;;;;;;26.40;55.30;;;;;;5053351;28;19993;-63
2022/07/02 03:10:36;;;;;;;;;;;26.40;54.90;;;;;;5052756;28;19978;-63
2022/07/02 03:13:01;;;;;;;;;;;26.30;54.20;;;;;;5052585;28;19970;-62
2022/07/02 03:15:27;;;;;;;;;;;26.30;54.40;;;;;;5052467;28;19909;-64
2022/07/02 03:17:53;;;;;;;;;;;26.40;54.60;;;;;;5052392;28;19931;-62
2022/07/02 03:20:18;;;;;;;;;;;26.40;54.30;;;;;;5052248;28;19917;-62
2022/07/02 03:22:44;;;;;;;;;;;26.30;54.10;;;;;;5052473;28;19909;-63
2022/07/02 03:25:11;;;;;;;;;;;26.30;53.90;;;;;;5052015;28;19959;-62
2022/07/02 03:27:37;;;;;;;;;;;26.30;53.90;;;;;;5052153;28;19916;-64
2022/07/02 03:30:02;;;;;;;;;;;26.20;54.30;;;;;;5051980;28;19921;-62
2022/07/02 03:32:29;;;;;;;;;;;26.20;54.10;;;;;;5052074;28;19975;-64
2022/07/02 03:34:55;;;;;;;;;;;26.20;54.10;;;;;;5052299;28;20023;-63
2022/07/02 03:37:23;;;;;;;;;;;26.20;53.90;;;;;;5051975;28;19913;-63
2022/07/02 03:39:48;;;;;;;;;;;26.20;53.70;;;;;;5052168;28;19912;-62
2022/07/02 03:42:14;;;;;;;;;;;26.20;53.40;;;;;;5052014;28;20430;-64
2022/07/02 03:44:40;;;;;;;;;;;26.20;53.40;;;;;;5051790;28;20360;-61
2022/07/02 03:47:05;;;;;;;;;;;26.10;53.30;;;;;;5052199;28;19970;-62
2022/07/02 03:49:31;;;;;;;;;;;26.00;53.20;;;;;;5052029;28;20352;-64
2022/07/02 03:51:56;;;;;;;;;;;26.00;53.20;;;;;;5051870;28;20043;-62
2022/07/02 03:54:22;;;;;;;;;;;25.90;53.30;;;;;;5052050;28;19956;-63
2022/07/02 03:56:47;;;;;;;;;;;26.00;52.90;;;;;;5051813;28;20447;-61
2022/07/02 03:59:13;;;;;;;;;;;26.10;52.60;;;;;;5052035;28;19932;-63
2022/07/02 04:01:38;;;;;;;;;;;26.00;52.30;;;;;;5052001;28;19963;-62
2022/07/02 04:04:04;;;;;;;;;;;26.00;52.30;;;;;;5052791;28;19958;-63
2022/07/02 04:06:30;;;;;;;;;;;25.90;52.20;;;;;;5052985;28;19909;-64
2022/07/02 04:08:55;;;;;;;;;;;25.90;52.20;;;;;;5052891;28;19908;-64
2022/07/02 04:11:21;;;;;;;;;;;25.90;52.10;;;;;;5052874;28;19921;-64
2022/07/02 04:13:46;;;;;;;;;;;26.00;52.00;;;;;;5052124;28;20493;-63
2022/07/02 04:16:12;;;;;;;;;;;26.00;51.90;;;;;;5052135;28;20376;-62
2022/07/02 04:18:37;;;;;;;;;;;26.10;52.10;;;;;;5054022;28;19913;-62
2022/07/02 04:21:03;;;;;;;;;;;26.10;51.40;;;;;;5055678;28;20364;-62
2022/07/02 04:23:28;;;;;;;;;;;26.10;52.00;;;;;;5055833;28;19917;-61
2022/07/02 04:25:54;;;;;;;;;;;26.10;51.00;;;;;;5055446;28;20313;-63
2022/07/02 04:28:19;;;;;;;;;;;26.20;50.90;;;;;;5055236;28;19952;-62
2022/07/02 04:30:45;;;;;;;;;;;26.10;51.00;;;;;;5055422;28;19929;-61
2022/07/02 04:33:10;;;;;;;;;;;26.20;50.80;;;;;;5055659;28;19909;-64
2022/07/02 04:35:36;;;;;;;;;;;26.10;50.90;;;;;;5055240;28;19917;-62
2022/07/02 04:38:01;;;;;;;;;;;26.10;50.60;;;;;;5055482;28;19931;-63
2022/07/02 04:40:27;;;;;;;;;;;26.20;50.80;;;;;;5055322;28;20272;-62
2022/07/02 04:42:52;;;;;;;;;;;26.20;50.80;;;;;;5055180;28;20304;-62
2022/07/02 04:45:18;;;;;;;;;;;26.20;50.60;;;;;;5054605;28;19921;-61
2022/07/02 04:47:44;;;;;;;;;;;26.30;50.30;;;;;;5054737;28;19909;-62
2022/07/02 04:50:09;;;;;;;;;;;26.10;50.10;;;;;;5054987;28;19913;-61
2022/07/02 04:52:35;;;;;;;;;;;26.10;50.50;;;;;;5054918;28;20053;-62
2022/07/02 04:55:00;;;;;;;;;;;26.10;50.10;;;;;;5054843;28;19909;-62
2022/07/02 04:57:26;;;;;;;;;;;26.20;49.70;;;;;;5054633;28;19935;-62
2022/07/02 04:59:51;;;;;;;;;;;26.10;50.10;;;;;;5054735;28;19909;-61
2022/07/02 05:02:17;;;;;;;;;;;26.20;49.70;;;;;;5054784;28;19999;-61
2022/07/02 05:04:42;;;;;;;;;;;26.20;49.90;;;;;;5054685;28;20029;-62
2022/07/02 05:07:08;;;;;;;;;;;26.20;49.90;;;;;;5054557;28;20380;-62
2022/07/02 05:09:33;;;;;;;;;;;26.30;49.80;;;;;;5054786;28;20317;-61
2022/07/02 05:12:00;;;;;;;;;;;26.20;50.00;;;;;;5054575;28;20361;-63
2022/07/02 05:14:26;;;;;;;;;;;26.30;49.90;;;;;;5054578;28;20000;-62
2022/07/02 05:16:52;;;;;;;;;;;26.20;49.90;;;;;;5054411;28;19952;-61
2022/07/02 05:19:18;;;;;;;;;;;26.30;50.20;;;;;;5054535;28;20375;-62
2022/07/02 05:21:43;;;;;;;;;;;26.40;50.10;;;;;;5054566;28;19913;-62
2022/07/02 05:24:09;;;;;;;;;;;26.40;49.90;;;;;;5054135;28;19915;-57
2022/07/02 05:26:35;;;;;;;;;;;26.40;50.00;;;;;;5053965;28;19909;-59
2022/07/02 05:29:00;;;;;;;;;;;26.50;49.90;;;;;;5053844;28;19924;-60
2022/07/02 05:31:26;;;;;;;;;;;26.50;50.00;;;;;;5053831;28;19921;-61
2022/07/02 05:33:51;;;;;;;;;;;26.50;50.00;;;;;;5054278;28;19972;-60
2022/07/02 05:36:17;;;;;;;;;;;26.50;50.00;;;;;;5054128;28;19999;-59
2022/07/02 05:38:43;;;;;;;;;;;26.60;49.90;;;;;;5054283;28;19948;-59
2022/07/02 05:41:08;;;;;;;;;;;26.70;49.80;;;;;;5053873;28;19935;-59
2022/07/02 05:43:34;;;;;;;;;;;27.00;49.00;;;;;;5054103;28;19913;-69
2022/07/02 05:45:59;;;;;;;;;;;27.20;48.50;;;;;;5054151;28;19916;-63
2022/07/02 05:48:25;;;;;;;;;;;27.50;48.30;;;;;;5054070;28;19955;-68
2022/07/02 05:50:50;;;;;;;;;;;27.70;47.80;;;;;;5053897;28;20283;-66
2022/07/02 05:53:16;;;;;;;;;;;27.90;47.20;;;;;;5053864;28;19945;-70
2022/07/02 05:55:42;;;;;;;;;;;28.00;46.80;;;;;;5053855;28;19971;-71
2022/07/02 05:58:08;;;;;;;;;;;28.20;46.70;;;;;;5053855;28;19920;-69
2022/07/02 06:00:34;;;;;;;;;;;28.30;46.10;;;;;;5054009;28;19913;-70
2022/07/02 06:02:59;;;;;;;;;;;28.40;45.90;;;;;;5053778;28;20253;-70
2022/07/02 06:08:09;;;;;;;;;;;28.60;45.70;;;;;;5053473;28;19919;-65
2022/07/02 06:10:35;;;;;;;;;;;28.60;45.30;;;;;;5053455;28;19913;-73
2022/07/02 06:13:00;;;;;;;;;;;28.50;45.30;;;;;;5053563;28;19959;-69
2022/07/02 06:15:26;;;;;;;;;;;28.50;45.50;;;;;;5053368;28;20365;-70
2022/07/02 06:17:51;;;;;;;;;;;28.60;46.00;;;;;;5053418;28;20261;-70
2022/07/02 06:20:17;;;;;;;;;;;28.60;46.10;;;;;;5053290;28;19999;-70
2022/07/02 06:22:42;;;;;;;;;;;28.70;46.00;;;;;;5052685;28;19912;-68
2022/07/02 06:25:08;;;;;;;;;;;28.40;46.40;;;;;;5052069;28;20427;-68
2022/07/02 06:27:34;;;;;;;;;;;28.50;46.70;;;;;;5052133;28;19952;-66
2022/07/02 06:30:00;;;;;;;;;;;28.80;46.40;;;;;;5051879;28;20010;-71
2022/07/02 06:32:27;;;;;;;;;;;28.70;46.40;;;;;;5051767;28;19921;-64
2022/07/02 06:34:53;;;;;;;;;;;28.80;46.50;;;;;;5051853;28;20365;-71
2022/07/02 06:37:19;;;;;;;;;;;28.90;46.50;;;;;;5051711;28;19995;-70
2022/07/02 06:39:44;;;;;;;;;;;29.00;46.80;;;;;;5051888;28;19920;-69
2022/07/02 06:42:19;;;;;;;;;;;28.80;47.20;;;;;;5051132;28;19916;-74
2022/07/02 06:44:46;;;;;;;;;;;28.90;46.90;;;;;;5051712;28;19909;-66
2022/07/02 06:47:12;;;;;;;;;;;28.90;46.70;;;;;;5051646;28;19913;-69
2022/07/02 06:49:38;;;;;;;;;;;28.90;47.40;;;;;;5051723;28;19959;-68
2022/07/02 06:52:03;;;;;;;;;;;29.00;47.10;;;;;;5051442;28;19921;-61
2022/07/02 06:54:29;;;;;;;;;;;29.10;47.00;;;;;;5051723;28;19913;-61
2022/07/02 06:56:54;;;;;;;;;;;29.20;47.00;;;;;;5052619;28;20361;-61
2022/07/02 06:59:20;;;;;;;;;;;29.20;47.30;;;;;;5052623;28;19932;-61
2022/07/02 07:01:45;;;;;;;;;;;29.30;47.00;;;;;;5052454;28;19912;-65
2022/07/02 07:04:11;;;;;;;;;;;29.30;47.10;;;;;;5052591;28;19943;-72
2022/07/02 07:06:44;;;;;;;;;;;29.40;47.10;;;;;;5052311;28;20528;-60
2022/07/02 07:09:09;;;;;;;;;;;29.40;47.10;;;;;;5052358;28;19916;-59
2022/07/02 07:11:35;;;;;;;;;;;29.40;47.20;;;;;;5052594;28;19916;-62
2022/07/02 07:14:00;;;;;;;;;;;29.20;47.60;;;;;;5052404;28;20395;-62
2022/07/02 07:16:26;;;;;;;;;;;29.40;47.30;;;;;;5051675;28;19939;-61
2022/07/02 07:21:23;;;;;;;;;;;29.50;47.40;;;;;;5050797;28;19959;-72
2022/07/02 07:23:49;;;;;;;;;;;29.40;47.40;;;;;;5051077;28;19952;-64
2022/07/02 07:26:14;;;;;;;;;;;29.30;47.30;;;;;;5046956;28;19917;-73
2022/07/02 07:28:40;;;;;;;;;;;29.20;47.80;;;;;;5045233;28;19912;-78
2022/07/02 07:31:05;;;;;;;;;;;29.30;47.50;;;;;;5050854;28;19925;-70
2022/07/02 07:33:31;;;;;;;;;;;29.30;48.00;;;;;;5050870;28;19915;-71
2022/07/02 07:35:57;;;;;;;;;;;29.40;47.80;;;;;;5050667;28;19927;-68
2022/07/02 07:38:23;;;;;;;;;;;29.40;47.60;;;;;;5050845;28;20353;-75
2022/07/02 07:40:48;;;;;;;;;;;29.50;47.80;;;;;;5051112;28;19942;-70
2022/07/02 07:43:14;;;;;;;;;;;29.40;48.00;;;;;;5050610;28;20288;-74
2022/07/02 07:45:39;;;;;;;;;;;29.60;48.10;;;;;;5050422;28;20072;-75
2022/07/02 07:48:05;;;;;;;;;;;29.60;47.70;;;;;;5050661;28;19913;-67
2022/07/02 07:50:31;;;;;;;;;;;29.70;47.10;;;;;;5050814;28;19978;-68
2022/07/02 07:52:56;;;;;;;;;;;29.70;47.00;;;;;;5052791;28;19924;-61
2022/07/02 07:55:22;;;;;;;;;;;29.80;46.90;;;;;;5057086;28;20375;-69
2022/07/02 07:57:47;;;;;;;;;;;29.90;47.00;;;;;;5057148;28;19947;-67
2022/07/02 08:00:13;;;;;;;;;;;29.90;46.30;;;;;;5057402;28;20395;-61
2022/07/02 08:02:39;;;;;;;;;;;29.80;46.40;;;;;;5057537;28;20022;-67
2022/07/02 08:05:05;;;;;;;;;;;29.80;46.40;;;;;;5057451;28;19921;-68
2022/07/02 08:07:37;;;;;;;;;;;29.70;46.30;;;;;;5057181;28;19978;-63
2022/07/02 08:10:04;;;;;;;;;;;29.80;46.30;;;;;;5057297;28;19909;-66
2022/07/02 08:12:29;;;;;;;;;;;29.70;46.40;;;;;;5057363;28;20008;-65
2022/07/02 08:14:55;;;;;;;;;;;29.80;46.30;;;;;;5057281;28;20011;-67
2022/07/02 08:17:20;;;;;;;;;;;29.90;45.70;;;;;;5057018;28;20003;-61
2022/07/02 08:19:46;;;;;;;;;;;30.00;45.50;;;;;;5057127;28;19955;-66
2022/07/02 08:22:11;;;;;;;;;;;30.00;45.60;;;;;;5056778;28;19913;-62
2022/07/02 08:24:37;;;;;;;;;;;30.10;45.30;;;;;;5056968;28;19916;-65
2022/07/02 08:27:02;;;;;;;;;;;30.10;44.90;;;;;;5057029;28;19913;-66
2022/07/02 08:29:28;;;;;;;;;;;30.10;45.30;;;;;;5056732;28;19929;-67
2022/07/02 08:31:53;;;;;;;;;;;30.10;44.90;;;;;;5055401;28;19944;-65
2022/07/02 08:34:19;;;;;;;;;;;30.20;44.60;;;;;;5038451;28;19913;-67
2022/07/02 08:36:44;;;;;;;;;;;30.10;44.70;;;;;;5037316;28;19917;-61
2022/07/02 08:39:10;;;;;;;;;;;30.10;44.70;;;;;;5041451;28;20310;-68
2022/07/02 08:41:36;;;;;;;;;;;30.30;45.00;;;;;;5050473;28;19909;-65
2022/07/02 08:44:02;;;;;;;;;;;30.30;44.50;;;;;;5047038;28;19913;-63
2022/07/02 08:46:28;;;;;;;;;;;30.30;44.10;;;;;;5056991;28;19936;-64
2022/07/02 08:48:55;;;;;;;;;;;30.10;44.10;;;;;;5057232;28;20055;-64
2022/07/02 08:51:21;;;;;;;;;;;30.10;44.50;;;;;;5057011;28;19920;-69
2022/07/02 08:53:47;;;;;;;;;;;30.10;44.60;;;;;;5057179;28;20007;-63
2022/07/02 08:56:13;;;;;;;;;;;30.20;44.60;;;;;;5042529;28;19924;-64
2022/07/02 08:58:39;;;;;;;;;;;30.10;44.00;;;;;;5044595;28;20360;-60
2022/07/02 09:01:06;;;;;;;;;;;30.20;44.00;;;;;;5038900;28;19995;-62
2022/07/02 09:03:32;;;;;;;;;;;30.20;43.70;;;;;;5037501;28;19909;-61
2022/07/02 09:05:57;;;;;;;;;;;30.30;43.90;;;;;;5033315;28;19923;-61
2022/07/02 09:08:23;;;;;;;;;;;30.40;43.90;;;;;;5033647;28;19920;-62
2022/07/02 09:10:51;;;;;;;;;;;30.50;43.70;;;;;;5033428;28;19925;-62
2022/07/02 09:13:17;;;;;;;;;;;30.40;43.20;;;;;;5033766;28;19920;-69
2022/07/02 09:15:43;;;;;;;;;;;30.40;43.40;;;;;;5033050;28;19924;-61
2022/07/02 09:18:09;;;;;;;;;;;30.40;43.60;;;;;;5033480;28;20347;-61
2022/07/02 09:20:34;;;;;;;;;;;30.40;43.10;;;;;;5033702;28;19916;-59
2022/07/02 09:23:00;;;;;;;;;;;30.50;43.40;;;;;;5033234;28;19909;-60
2022/07/02 09:25:29;;;;;;;;;;;30.60;43.30;;;;;;5033606;28;19917;-62
2022/07/02 09:28:03;;;;;;;;;;;30.70;42.70;;;;;;5015766;28;19909;-62
2022/07/02 09:30:30;;;;;;;;;;;30.80;42.30;;;;;;5032848;28;20024;-61
2022/07/02 09:35:39;;;;;;;;;;;30.80;42.20;;;;;;5035130;28;20467;-61
2022/07/02 09:38:09;;;;;;;;;;;30.80;42.40;;;;;;5057964;28;19995;-62
2022/07/02 09:40:35;;;;;;;;;;;30.90;42.40;;;;;;5060319;28;20321;-62
2022/07/02 09:43:00;;;;;;;;;;;30.90;42.40;;;;;;5059408;28;20363;-64
2022/07/02 09:45:26;;;;;;;;;;;30.80;41.90;;;;;;5053785;28;19956;-63
2022/07/02 09:47:53;;;;;;;;;;;30.80;42.00;;;;;;5052956;28;19917;-63
2022/07/02 09:50:19;;;;;;;;;;;30.80;42.00;;;;;;5052679;28;20131;-64
2022/07/02 09:52:55;;;;;;;;;;;30.90;42.10;;;;;;5052633;28;19928;-62
2022/07/02 09:55:26;;;;;;;;;;;30.90;42.40;;;;;;5052280;28;20262;-63
2022/07/02 09:57:52;;;;;;;;;;;31.00;41.80;;;;;;5052983;28;19963;-63
2022/07/02 10:00:18;;;;;;;;;;;30.90;41.90;;;;;;5052532;28;19916;-64
2022/07/02 10:02:44;;;;;;;;;;;30.90;41.90;;;;;;5052610;28;19908;-63
2022/07/02 10:05:09;;;;;;;;;;;31.00;42.10;;;;;;5052568;28;19923;-64
2022/07/02 10:07:35;;;;;;;;;;;31.00;41.40;;;;;;5052633;28;19996;-66
2022/07/02 10:10:02;;;;;;;;;;;31.10;41.80;;;;;;5050527;28;19967;-63
2022/07/02 10:12:28;;;;;;;;;;;31.20;41.50;;;;;;5049471;28;19921;-66
2022/07/02 10:14:54;;;;;;;;;;;31.30;41.30;;;;;;5052354;28;19913;-64
2022/07/02 10:17:20;;;;;;;;;;;31.40;41.30;;;;;;5052236;28;20280;-63
2022/07/02 10:19:46;;;;;;;;;;;31.40;41.30;;;;;;5049421;28;19928;-65
2022/07/02 10:22:14;;;;;;;;;;;31.30;41.00;;;;;;5051971;28;19920;-65
2022/07/02 10:24:40;;;;;;;;;;;31.30;41.30;;;;;;5051740;28;19974;-60
2022/07/02 10:27:05;;;;;;;;;;;31.40;40.80;;;;;;5052133;28;19916;-65
2022/07/02 10:29:31;;;;;;;;;;;31.30;40.90;;;;;;5051206;28;20342;-64
2022/07/02 10:32:04;;;;;;;;;;;31.40;41.90;;;;;;5051769;28;20304;-63
2022/07/02 10:34:45;;;;;;;;;;;31.40;41.10;;;;;;5052409;28;19913;-62
2022/07/02 10:37:11;;;;;;;;;;;31.50;40.70;;;;;;5052115;28;19917;-62
2022/07/02 10:39:38;;;;;;;;;;;31.60;40.90;;;;;;5052346;28;19908;-67
2022/07/02 10:42:03;;;;;;;;;;;31.80;41.10;;;;;;5052832;28;19913;-62
2022/07/02 10:44:36;;;;;;;;;;;31.80;40.20;;;;;;5052779;28;19916;-63
2022/07/02 10:47:02;;;;;;;;;;;31.80;41.00;;;;;;5039290;28;19932;-70
2022/07/02 10:49:28;;;;;;;;;;;31.70;40.60;;;;;;5050633;28;20006;-68
2022/07/02 10:51:56;;;;;;;;;;;31.70;40.10;;;;;;5051070;28;19924;-66
2022/07/02 10:54:29;;;;;;;;;;;31.50;40.40;;;;;;5035641;28;19956;-59
2022/07/02 10:56:55;;;;;;;;;;;31.60;40.50;;;;;;5033154;28;19913;-62
2022/07/02 10:59:27;;;;;;;;;;;31.90;40.70;;;;;;5035739;28;19909;-59
2022/07/02 11:02:02;;;;;;;;;;;32.00;40.40;;;;;;5035685;28;19915;-63
2022/07/02 11:04:28;;;;;;;;;;;32.10;40.00;;;;;;5032169;28;19913;-62
2022/07/02 11:07:03;;;;;;;;;;;32.00;39.60;;;;;;5032034;28;19920;-63
2022/07/02 11:09:28;;;;;;;;;;;32.20;39.50;;;;;;5032192;28;19939;-62
2022/07/02 11:11:58;;;;;;;;;;;32.30;39.80;;;;;;5031962;28;19938;-62
2022/07/02 11:14:26;;;;;;;;;;;32.40;38.40;;;;;;5044406;28;19959;-60
2022/07/02 11:16:53;;;;;;;;;;;32.40;38.80;;;;;;5051396;28;19928;-60
2022/07/02 11:19:18;;;;;;;;;;;32.60;38.60;;;;;;5041560;28;20067;-59
2022/07/02 11:21:48;;;;;;;;;;;32.70;38.10;;;;;;5045974;28;21260;-59
2022/07/02 11:24:18;;;;;;;;;;;32.70;38.20;;;;;;5041228;28;19913;-60
2022/07/02 11:26:45;;;;;;;;;;;32.70;37.80;;;;;;5049847;28;19913;-61
2022/07/02 11:29:11;;;;;;;;;;;32.70;37.60;;;;;;5031250;28;19917;-60
2022/07/02 11:31:37;;;;;;;;;;;32.20;37.80;;;;;;5031848;28;20394;-59
2022/07/02 11:34:03;;;;;;;;;;;32.30;38.10;;;;;;5031578;28;19913;-62
2022/07/02 11:36:29;;;;;;;;;;;32.40;38.20;;;;;;5031726;28;19913;-63
2022/07/02 11:38:55;;;;;;;;;;;32.60;37.90;;;;;;5048923;28;20395;-60
2022/07/02 11:41:20;;;;;;;;;;;32.60;37.70;;;;;;5042155;28;19910;-61
2022/07/02 11:43:47;;;;;;;;;;;32.60;37.90;;;;;;5040411;28;19968;-60
2022/07/02 11:46:13;;;;;;;;;;;32.80;37.80;;;;;;5051300;28;19920;-61
2022/07/02 11:48:39;;;;;;;;;;;32.90;36.90;;;;;;5050999;28;19917;-61
2022/07/02 11:51:05;;;;;;;;;;;33.00;36.70;;;;;;5051244;28;19913;-58
2022/07/02 11:53:30;;;;;;;;;;;33.10;35.50;;;;;;5051177;28;20280;-58
2022/07/02 11:56:09;;;;;;;;;;;33.10;36.50;;;;;;5051389;28;19958;-58
2022/07/02 11:58:39;;;;;;;;;;;33.20;35.90;;;;;;5051417;28;19913;-60
2022/07/02 12:01:05;;;;;;;;;;;33.00;36.30;;;;;;5047966;28;19917;-62
2022/07/02 12:03:30;;;;;;;;;;;33.00;36.40;;;;;;5031346;28;19913;-59
2022/07/02 12:05:57;;;;;;;;;;;33.00;36.20;;;;;;5045849;28;19909;-61
2022/07/02 12:08:23;;;;;;;;;;;32.80;36.40;;;;;;5050574;28;19987;-59
2022/07/02 12:10:48;;;;;;;;;;;33.00;37.00;;;;;;5040240;28;20016;-59
2022/07/02 12:13:14;;;;;;;;;;;33.10;35.30;;;;;;5034270;28;20346;-59
2022/07/02 12:15:49;;;;;;;;;;;33.20;36.30;;;;;;5033171;28;19966;-61
2022/07/02 12:18:24;;;;;;;;;;;33.30;34.80;;;;;;5014650;28;20058;-59
2022/07/02 12:20:49;;;;;;;;;;;33.30;34.30;;;;;;5031112;28;19936;-59
2022/07/02 12:23:15;;;;;;;;;;;33.40;34.80;;;;;;5030713;28;20562;-60
2022/07/02 12:25:44;;;;;;;;;;;33.50;34.50;;;;;;5035790;28;19913;-58
2022/07/02 12:30:53;;;;;;;;;;;33.40;34.10;;;;;;5032632;28;20044;-61
2022/07/02 12:33:29;;;;;;;;;;;33.30;34.10;;;;;;5035773;28;20432;-61
2022/07/02 12:35:58;;;;;;;;;;;33.10;34.30;;;;;;5031313;28;19920;-61
2022/07/02 12:38:24;;;;;;;;;;;32.80;35.30;;;;;;5031350;28;20276;-60
2022/07/02 12:40:56;;;;;;;;;;;33.00;35.40;;;;;;5035801;28;19909;-59
2022/07/02 12:43:22;;;;;;;;;;;33.10;35.10;;;;;;5042418;28;19914;-59
2022/07/02 12:45:48;;;;;;;;;;;33.20;34.90;;;;;;5036006;28;20324;-58
2022/07/02 12:48:18;;;;;;;;;;;33.40;34.70;;;;;;5048148;28;19916;-58
2022/07/02 12:50:44;;;;;;;;;;;33.50;34.70;;;;;;5053484;28;19958;-61
2022/07/02 12:53:20;;;;;;;;;;;33.60;34.30;;;;;;5053703;28;19917;-65
2022/07/02 12:55:51;;;;;;;;;;;33.60;34.20;;;;;;5052034;28;20008;-59
2022/07/02 12:58:17;;;;;;;;;;;33.50;34.60;;;;;;5046489;28;20388;-59
2022/07/02 13:00:43;;;;;;;;;;;33.50;34.70;;;;;;5046390;28;19913;-62
2022/07/02 13:03:10;;;;;;;;;;;33.40;34.20;;;;;;5046415;28;20269;-62
2022/07/02 13:05:38;;;;;;;;;;;33.40;34.40;;;;;;5051698;28;19909;-59
2022/07/02 13:08:04;;;;;;;;;;;33.20;34.10;;;;;;5053717;28;19908;-59
2022/07/02 13:10:29;;;;;;;;;;;33.20;34.80;;;;;;5049784;28;19921;-59
2022/07/02 13:12:55;;;;;;;;;;;33.20;34.60;;;;;;5049727;28;19943;-58
2022/07/02 13:15:20;;;;;;;;;;;33.10;34.80;;;;;;5053194;28;19916;-59
2022/07/02 13:17:46;;;;;;;;;;;33.20;34.40;;;;;;5054088;28;19931;-59
2022/07/02 13:20:12;;;;;;;;;;;33.30;34.60;;;;;;5054068;28;20379;-58
2022/07/02 13:22:38;;;;;;;;;;;33.20;35.00;;;;;;5053855;28;19916;-61
2022/07/02 13:25:04;;;;;;;;;;;33.20;34.80;;;;;;5052608;28;19920;-58
2022/07/02 13:27:30;;;;;;;;;;;33.20;34.50;;;;;;5052940;28;19912;-59
2022/07/02 13:29:57;;;;;;;;;;;33.30;34.10;;;;;;5051010;28;19974;-58
2022/07/02 13:32:22;;;;;;;;;;;33.30;34.20;;;;;;5052809;28;19925;-60
2022/07/02 13:34:48;;;;;;;;;;;33.40;34.10;;;;;;5052257;28;19908;-60
2022/07/02 13:37:13;;;;;;;;;;;33.30;34.10;;;;;;5038283;28;20252;-61
2022/07/02 13:39:39;;;;;;;;;;;33.30;34.70;;;;;;5038976;28;19923;-59
2022/07/02 13:42:05;;;;;;;;;;;33.30;34.40;;;;;;5047182;28;19975;-60
2022/07/02 13:44:32;;;;;;;;;;;33.30;35.20;;;;;;5051837;28;19950;-61
2022/07/02 13:46:57;;;;;;;;;;;33.30;35.60;;;;;;5052138;28;20026;-62
2022/07/02 13:49:23;;;;;;;;;;;33.30;34.80;;;;;;5052671;28;20454;-62
2022/07/02 13:51:48;;;;;;;;;;;33.40;34.00;;;;;;5050029;28;20384;-61
2022/07/02 13:54:14;;;;;;;;;;;33.30;34.10;;;;;;5046598;28;20412;-62
2022/07/02 13:56:40;;;;;;;;;;;33.40;34.50;;;;;;5040469;28;19962;-60
2022/07/02 13:59:05;;;;;;;;;;;33.50;34.00;;;;;;5053609;28;20015;-60
2022/07/02 14:01:31;;;;;;;;;;;33.50;33.70;;;;;;5053252;28;19909;-61
2022/07/02 14:03:57;;;;;;;;;;;33.40;34.20;;;;;;5053907;28;19913;-62
2022/07/02 14:06:23;;;;;;;;;;;33.30;34.80;;;;;;5053307;28;19924;-62
2022/07/02 14:08:48;;;;;;;;;;;33.40;34.70;;;;;;5035805;28;19913;-62
2022/07/02 14:11:14;;;;;;;;;;;33.40;34.20;;;;;;5053282;28;19925;-63
2022/07/02 14:13:40;;;;;;;;;;;33.40;34.20;;;;;;5049872;28;19913;-63
2022/07/02 14:16:05;;;;;;;;;;;33.40;34.30;;;;;;5051572;28;19920;-61
2022/07/02 14:18:31;;;;;;;;;;;33.40;34.40;;;;;;5053196;28;20261;-59
2022/07/02 14:20:57;;;;;;;;;;;33.40;34.30;;;;;;5052721;28;20054;-61
2022/07/02 14:23:22;;;;;;;;;;;33.40;34.30;;;;;;5052760;28;19964;-63